Marion, IL (62959)

12:06 AM CDT on May 29, 2015 (GMT -0500)
WB0VTM - HAM RADIO | | Change Station
CLOSE
Current Station
Personal Weather Station
Location: Marion, IL
Elevation: 492 ft
Nearby Weather Stations

Elev 492 ft 37.72 °N, 88.95 °W | Updated 9 minutes ago

Clear
Clear
71.1 °F
Feels Like 73 °F
N
0.0
Wind Variable Wind from SE

Today
High -- | Low -- °F
--% Chance of Precip.
Yesterday
High -- | Low -- °F
Precip. -- in
5:36 AM 8:09 PM
Waxing Gibbous, 81% visible
Pressure 30.08 in
Visibility 10.0 miles
Clouds Clear
Heat Index 73 °F
Dew Point 16 °F
Humidity 12%
Rainfall in
Snow Depth Not available.
UV 0 out of 12
Pollen 7.60 out of 12
Air Quality Not available.
Flu Activity Sporadic
METAR KMWA 290435Z AUTO 00000KT 10SM CLR 22/19 A3008 RMK AO2

More Conditions Fewer Conditions

Pressure 30.08 in
Visibility 10.0 miles
Clouds Clear
Heat Index 73 °F
Dew Point 16 °F
Humidity 12%
Rainfall in
Snow Depth Not available.
UV 0 out of 12
Pollen 7.60 out of 12
Air Quality Not available.
Flu Activity Sporadic
METAR KMWA 290435Z AUTO 00000KT 10SM CLR 22/19 A3008 RMK AO2

More Conditions Fewer Conditions

10-Day Weather Forecast

Almanac

Astronomy

May. 29, 2015 Rise Set
Actual Time
Civil Twilight
Nautical Twilight
Astronomical Twilight
Moon
Length of Visible Light
Length of Day
Tomorrow will be .
, % of the Moon is Illuminated

Today's Extremes

State Highs State Lows

Community

WunderPhotos

Upload Photos

1,825,211 photos uploaded!

WunderBlogs® & News

Nearby

Air Quality

  Air Quality AQ Index Pollutant
Not available.

Snow Depth

Station Depth Elevation

Earthquake Activity

City Distance Mag. Time & Date
Minimum magnitude displayed is 2.5.

Coastal Water Temperatures

Place Temperature

Stations

Nearby Weather Stations

Station Location Temp. Windchill Dew Point Humidity Wind Precip. Elev Updated Type